sensor_id;sensor_type;location;lat;lon;timestamp;P1;durP1;ratioP1;P2;durP2;ratioP2
48014;SDS011;33780;51.034;7.120;2023-05-08T00:01:44;3.55;;;2.45;;
48014;SDS011;33780;51.034;7.120;2023-05-08T00:04:10;4.65;;;2.97;;
48014;SDS011;33780;51.034;7.120;2023-05-08T00:06:35;4.78;;;2.45;;
48014;SDS011;33780;51.034;7.120;2023-05-08T00:09:00;4.07;;;2.30;;
48014;SDS011;33780;51.034;7.120;2023-05-08T00:11:25;5.28;;;2.70;;
48014;SDS011;33780;51.034;7.120;2023-05-08T00:13:51;4.13;;;2.35;;
48014;SDS011;33780;51.034;7.120;2023-05-08T00:16:16;4.00;;;2.55;;
48014;SDS011;33780;51.034;7.120;2023-05-08T00:18:42;3.97;;;2.05;;
48014;SDS011;33780;51.034;7.120;2023-05-08T00:21:07;3.78;;;2.42;;
48014;SDS011;33780;51.034;7.120;2023-05-08T00:23:32;5.95;;;2.58;;
48014;SDS011;33780;51.034;7.120;2023-05-08T00:25:58;3.70;;;2.40;;
48014;SDS011;33780;51.034;7.120;2023-05-08T00:28:23;3.55;;;2.28;;
48014;SDS011;33780;51.034;7.120;2023-05-08T00:30:49;3.63;;;2.22;;
48014;SDS011;33780;51.034;7.120;2023-05-08T00:33:14;5.13;;;2.50;;
48014;SDS011;33780;51.034;7.120;2023-05-08T00:35:39;3.88;;;2.40;;
48014;SDS011;33780;51.034;7.120;2023-05-08T00:38:06;4.78;;;2.42;;
48014;SDS011;33780;51.034;7.120;2023-05-08T00:40:32;4.93;;;2.42;;
48014;SDS011;33780;51.034;7.120;2023-05-08T00:42:57;4.90;;;2.58;;
48014;SDS011;33780;51.034;7.120;2023-05-08T00:45:22;3.92;;;2.10;;
48014;SDS011;33780;51.034;7.120;2023-05-08T00:47:48;4.80;;;2.28;;
48014;SDS011;33780;51.034;7.120;2023-05-08T00:50:14;3.88;;;2.17;;
48014;SDS011;33780;51.034;7.120;2023-05-08T00:52:39;4.25;;;2.30;;
48014;SDS011;33780;51.034;7.120;2023-05-08T00:55:05;3.85;;;2.53;;
48014;SDS011;33780;51.034;7.120;2023-05-08T00:57:31;4.88;;;2.47;;
48014;SDS011;33780;51.034;7.120;2023-05-08T00:59:59;3.95;;;2.63;;
48014;SDS011;33780;51.034;7.120;2023-05-08T01:02:25;4.07;;;2.40;;
48014;SDS011;33780;51.034;7.120;2023-05-08T01:04:52;4.15;;;2.25;;
48014;SDS011;33780;51.034;7.120;2023-05-08T01:07:17;4.47;;;2.50;;
48014;SDS011;33780;51.034;7.120;2023-05-08T01:09:44;5.38;;;2.55;;
48014;SDS011;33780;51.034;7.120;2023-05-08T01:12:17;4.03;;;2.30;;
48014;SDS011;33780;51.034;7.120;2023-05-08T01:17:29;5.10;;;2.40;;
48014;SDS011;33780;51.034;7.120;2023-05-08T01:20:10;6.63;;;2.55;;
48014;SDS011;33780;51.034;7.120;2023-05-08T01:22:57;3.35;;;2.45;;
48014;SDS011;33780;51.034;7.120;2023-05-08T01:28:50;3.58;;;2.05;;
48014;SDS011;33780;51.034;7.120;2023-05-08T01:31:46;4.90;;;2.33;;
48014;SDS011;33780;51.034;7.120;2023-05-08T01:34:24;4.45;;;2.20;;
48014;SDS011;33780;51.034;7.120;2023-05-08T01:37:05;3.78;;;2.28;;
48014;SDS011;33780;51.034;7.120;2023-05-08T01:44:52;6.22;;;2.38;;
48014;SDS011;33780;51.034;7.120;2023-05-08T01:47:23;5.78;;;2.08;;
48014;SDS011;33780;51.034;7.120;2023-05-08T01:50:06;3.22;;;2.10;;
48014;SDS011;33780;51.034;7.120;2023-05-08T01:52:42;4.13;;;1.90;;
48014;SDS011;33780;51.034;7.120;2023-05-08T01:57:44;3.55;;;2.10;;
48014;SDS011;33780;51.034;7.120;2023-05-08T02:00:13;5.95;;;2.40;;
48014;SDS011;33780;51.034;7.120;2023-05-08T02:02:43;5.65;;;2.20;;
48014;SDS011;33780;51.034;7.120;2023-05-08T02:05:12;5.78;;;2.10;;
48014;SDS011;33780;51.034;7.120;2023-05-08T02:07:38;4.60;;;2.30;;
48014;SDS011;33780;51.034;7.120;2023-05-08T02:10:05;3.35;;;2.08;;
48014;SDS011;33780;51.034;7.120;2023-05-08T02:12:35;4.15;;;2.47;;
48014;SDS011;33780;51.034;7.120;2023-05-08T02:15:02;4.20;;;2.15;;
48014;SDS011;33780;51.034;7.120;2023-05-08T02:17:29;5.95;;;2.42;;
48014;SDS011;33780;51.034;7.120;2023-05-08T02:19:56;4.45;;;2.25;;
48014;SDS011;33780;51.034;7.120;2023-05-08T02:22:23;5.18;;;2.33;;
48014;SDS011;33780;51.034;7.120;2023-05-08T02:24:50;4.00;;;2.42;;
48014;SDS011;33780;51.034;7.120;2023-05-08T02:27:21;5.50;;;2.40;;
48014;SDS011;33780;51.034;7.120;2023-05-08T02:29:50;4.03;;;2.40;;
48014;SDS011;33780;51.034;7.120;2023-05-08T02:32:16;5.78;;;2.75;;
48014;SDS011;33780;51.034;7.120;2023-05-08T02:34:43;3.35;;;2.38;;
48014;SDS011;33780;51.034;7.120;2023-05-08T02:37:09;3.50;;;2.20;;
48014;SDS011;33780;51.034;7.120;2023-05-08T02:39:36;4.22;;;2.38;;
48014;SDS011;33780;51.034;7.120;2023-05-08T02:42:04;5.45;;;2.42;;
48014;SDS011;33780;51.034;7.120;2023-05-08T02:44:29;5.32;;;2.63;;
48014;SDS011;33780;51.034;7.120;2023-05-08T02:46:55;4.90;;;2.15;;
48014;SDS011;33780;51.034;7.120;2023-05-08T02:49:51;3.97;;;2.55;;
48014;SDS011;33780;51.034;7.120;2023-05-08T02:52:26;7.38;;;2.42;;
48014;SDS011;33780;51.034;7.120;2023-05-08T02:58:01;3.58;;;1.92;;
48014;SDS011;33780;51.034;7.120;2023-05-08T03:03:21;4.18;;;2.38;;
48014;SDS011;33780;51.034;7.120;2023-05-08T03:05:53;3.88;;;2.30;;
48014;SDS011;33780;51.034;7.120;2023-05-08T03:08:31;4.73;;;2.30;;
48014;SDS011;33780;51.034;7.120;2023-05-08T03:11:00;6.05;;;2.50;;
48014;SDS011;33780;51.034;7.120;2023-05-08T03:13:30;4.25;;;2.50;;
48014;SDS011;33780;51.034;7.120;2023-05-08T03:15:59;3.83;;;2.10;;
48014;SDS011;33780;51.034;7.120;2023-05-08T03:18:27;4.85;;;2.83;;
48014;SDS011;33780;51.034;7.120;2023-05-08T03:20:58;4.55;;;2.55;;
48014;SDS011;33780;51.034;7.120;2023-05-08T03:23:25;3.83;;;2.28;;
48014;SDS011;33780;51.034;7.120;2023-05-08T03:25:57;5.88;;;2.50;;
48014;SDS011;33780;51.034;7.120;2023-05-08T03:28:23;5.03;;;2.83;;
48014;SDS011;33780;51.034;7.120;2023-05-08T03:30:53;6.72;;;2.72;;
48014;SDS011;33780;51.034;7.120;2023-05-08T03:33:20;9.35;;;2.80;;
48014;SDS011;33780;51.034;7.120;2023-05-08T03:35:47;4.28;;;2.60;;
48014;SDS011;33780;51.034;7.120;2023-05-08T03:38:15;3.85;;;2.42;;
48014;SDS011;33780;51.034;7.120;2023-05-08T03:40:41;4.78;;;2.97;;
48014;SDS011;33780;51.034;7.120;2023-05-08T03:43:06;4.25;;;2.58;;
48014;SDS011;33780;51.034;7.120;2023-05-08T03:45:36;4.05;;;2.33;;
48014;SDS011;33780;51.034;7.120;2023-05-08T03:48:03;4.47;;;2.53;;
48014;SDS011;33780;51.034;7.120;2023-05-08T03:50:30;4.65;;;2.65;;
48014;SDS011;33780;51.034;7.120;2023-05-08T03:52:57;5.07;;;2.88;;
48014;SDS011;33780;51.034;7.120;2023-05-08T03:55:23;6.88;;;3.25;;
48014;SDS011;33780;51.034;7.120;2023-05-08T03:58:06;4.82;;;3.15;;
48014;SDS011;33780;51.034;7.120;2023-05-08T04:03:15;4.65;;;2.72;;
48014;SDS011;33780;51.034;7.120;2023-05-08T04:05:50;6.05;;;2.83;;
48014;SDS011;33780;51.034;7.120;2023-05-08T04:08:26;4.60;;;2.85;;
48014;SDS011;33780;51.034;7.120;2023-05-08T04:10:56;6.38;;;3.15;;
48014;SDS011;33780;51.034;7.120;2023-05-08T04:13:28;5.95;;;3.28;;
48014;SDS011;33780;51.034;7.120;2023-05-08T04:16:06;6.43;;;3.33;;
48014;SDS011;33780;51.034;7.120;2023-05-08T04:18:37;6.82;;;3.03;;
48014;SDS011;33780;51.034;7.120;2023-05-08T04:21:09;5.43;;;3.30;;
48014;SDS011;33780;51.034;7.120;2023-05-08T04:23:39;6.43;;;3.70;;
48014;SDS011;33780;51.034;7.120;2023-05-08T04:26:08;7.35;;;3.67;;
48014;SDS011;33780;51.034;7.120;2023-05-08T04:28:35;7.50;;;4.22;;
48014;SDS011;33780;51.034;7.120;2023-05-08T04:31:01;7.15;;;4.32;;
48014;SDS011;33780;51.034;7.120;2023-05-08T04:33:28;7.55;;;3.80;;
48014;SDS011;33780;51.034;7.120;2023-05-08T04:35:54;6.53;;;3.80;;
48014;SDS011;33780;51.034;7.120;2023-05-08T04:38:20;6.95;;;3.83;;
48014;SDS011;33780;51.034;7.120;2023-05-08T04:40:45;6.70;;;4.00;;
48014;SDS011;33780;51.034;7.120;2023-05-08T04:43:11;5.93;;;3.45;;
48014;SDS011;33780;51.034;7.120;2023-05-08T04:45:36;5.80;;;3.60;;
48014;SDS011;33780;51.034;7.120;2023-05-08T04:48:02;6.50;;;3.65;;
48014;SDS011;33780;51.034;7.120;2023-05-08T04:50:27;10.32;;;5.00;;
48014;SDS011;33780;51.034;7.120;2023-05-08T04:52:52;6.57;;;3.75;;
48014;SDS011;33780;51.034;7.120;2023-05-08T04:55:18;7.03;;;3.53;;
48014;SDS011;33780;51.034;7.120;2023-05-08T04:57:43;6.00;;;3.40;;
48014;SDS011;33780;51.034;7.120;2023-05-08T05:00:16;7.05;;;3.88;;
48014;SDS011;33780;51.034;7.120;2023-05-08T05:02:41;6.93;;;3.80;;
48014;SDS011;33780;51.034;7.120;2023-05-08T05:05:07;7.82;;;3.78;;
48014;SDS011;33780;51.034;7.120;2023-05-08T05:07:41;5.75;;;3.53;;
48014;SDS011;33780;51.034;7.120;2023-05-08T05:10:07;5.97;;;3.70;;
48014;SDS011;33780;51.034;7.120;2023-05-08T05:12:38;7.32;;;3.78;;
48014;SDS011;33780;51.034;7.120;2023-05-08T05:15:03;7.35;;;3.97;;
48014;SDS011;33780;51.034;7.120;2023-05-08T05:17:29;9.85;;;4.47;;
48014;SDS011;33780;51.034;7.120;2023-05-08T05:22:26;5.93;;;3.60;;
48014;SDS011;33780;51.034;7.120;2023-05-08T05:24:52;7.38;;;4.00;;
48014;SDS011;33780;51.034;7.120;2023-05-08T05:27:26;6.60;;;4.03;;
48014;SDS011;33780;51.034;7.120;2023-05-08T05:29:54;7.32;;;4.30;;
48014;SDS011;33780;51.034;7.120;2023-05-08T05:32:21;6.65;;;4.07;;
48014;SDS011;33780;51.034;7.120;2023-05-08T05:35:11;8.32;;;4.43;;
48014;SDS011;33780;51.034;7.120;2023-05-08T05:37:53;6.65;;;3.70;;
48014;SDS011;33780;51.034;7.120;2023-05-08T05:40:18;8.05;;;3.97;;
48014;SDS011;33780;51.034;7.120;2023-05-08T05:42:47;7.63;;;4.07;;
48014;SDS011;33780;51.034;7.120;2023-05-08T05:45:15;7.90;;;4.20;;
48014;SDS011;33780;51.034;7.120;2023-05-08T05:47:44;6.85;;;3.97;;
48014;SDS011;33780;51.034;7.120;2023-05-08T05:50:22;7.00;;;3.85;;
48014;SDS011;33780;51.034;7.120;2023-05-08T05:52:48;6.40;;;3.85;;
48014;SDS011;33780;51.034;7.120;2023-05-08T05:55:13;7.80;;;4.28;;
48014;SDS011;33780;51.034;7.120;2023-05-08T06:01:16;8.32;;;4.60;;
48014;SDS011;33780;51.034;7.120;2023-05-08T06:03:42;7.97;;;4.43;;
48014;SDS011;33780;51.034;7.120;2023-05-08T06:06:21;7.15;;;4.20;;
48014;SDS011;33780;51.034;7.120;2023-05-08T06:08:46;8.38;;;4.38;;
48014;SDS011;33780;51.034;7.120;2023-05-08T06:11:12;7.75;;;4.13;;
48014;SDS011;33780;51.034;7.120;2023-05-08T06:13:41;7.60;;;4.22;;
48014;SDS011;33780;51.034;7.120;2023-05-08T06:16:12;6.55;;;4.18;;
48014;SDS011;33780;51.034;7.120;2023-05-08T06:18:37;7.18;;;4.30;;
48014;SDS011;33780;51.034;7.120;2023-05-08T06:21:02;7.05;;;4.30;;
48014;SDS011;33780;51.034;7.120;2023-05-08T06:23:28;6.45;;;3.88;;
48014;SDS011;33780;51.034;7.120;2023-05-08T06:25:53;11.43;;;4.18;;
48014;SDS011;33780;51.034;7.120;2023-05-08T06:28:19;6.72;;;3.90;;
48014;SDS011;33780;51.034;7.120;2023-05-08T06:30:46;6.30;;;4.00;;
48014;SDS011;33780;51.034;7.120;2023-05-08T06:33:11;6.50;;;4.30;;
48014;SDS011;33780;51.034;7.120;2023-05-08T06:35:37;7.68;;;4.25;;
48014;SDS011;33780;51.034;7.120;2023-05-08T06:38:03;10.07;;;3.95;;
48014;SDS011;33780;51.034;7.120;2023-05-08T06:40:29;11.35;;;4.00;;
48014;SDS011;33780;51.034;7.120;2023-05-08T06:42:54;7.35;;;3.97;;
48014;SDS011;33780;51.034;7.120;2023-05-08T06:45:20;9.98;;;4.20;;
48014;SDS011;33780;51.034;7.120;2023-05-08T06:47:45;6.07;;;3.90;;
48014;SDS011;33780;51.034;7.120;2023-05-08T06:50:10;7.88;;;3.92;;
48014;SDS011;33780;51.034;7.120;2023-05-08T06:52:36;6.00;;;3.47;;
48014;SDS011;33780;51.034;7.120;2023-05-08T06:55:01;6.53;;;4.00;;
48014;SDS011;33780;51.034;7.120;2023-05-08T06:57:27;6.93;;;3.78;;
48014;SDS011;33780;51.034;7.120;2023-05-08T06:59:54;10.07;;;4.40;;
48014;SDS011;33780;51.034;7.120;2023-05-08T07:02:20;6.90;;;3.72;;
48014;SDS011;33780;51.034;7.120;2023-05-08T07:04:45;6.72;;;4.00;;
48014;SDS011;33780;51.034;7.120;2023-05-08T07:07:17;7.18;;;3.95;;
48014;SDS011;33780;51.034;7.120;2023-05-08T07:09:42;7.53;;;3.83;;
48014;SDS011;33780;51.034;7.120;2023-05-08T07:12:07;6.72;;;4.00;;
48014;SDS011;33780;51.034;7.120;2023-05-08T07:14:33;7.20;;;3.88;;
48014;SDS011;33780;51.034;7.120;2023-05-08T07:17:01;7.35;;;3.72;;
48014;SDS011;33780;51.034;7.120;2023-05-08T07:19:30;6.20;;;4.00;;
48014;SDS011;33780;51.034;7.120;2023-05-08T07:21:56;7.03;;;4.20;;
48014;SDS011;33780;51.034;7.120;2023-05-08T07:24:21;8.10;;;4.50;;
48014;SDS011;33780;51.034;7.120;2023-05-08T07:26:46;6.30;;;3.90;;
48014;SDS011;33780;51.034;7.120;2023-05-08T07:29:12;6.70;;;3.95;;
48014;SDS011;33780;51.034;7.120;2023-05-08T07:31:40;7.20;;;4.07;;
48014;SDS011;33780;51.034;7.120;2023-05-08T07:34:05;6.88;;;4.30;;
48014;SDS011;33780;51.034;7.120;2023-05-08T07:36:31;8.23;;;4.32;;
48014;SDS011;33780;51.034;7.120;2023-05-08T07:38:56;7.85;;;3.97;;
48014;SDS011;33780;51.034;7.120;2023-05-08T07:41:21;12.82;;;4.53;;
48014;SDS011;33780;51.034;7.120;2023-05-08T07:43:47;6.95;;;4.07;;
48014;SDS011;33780;51.034;7.120;2023-05-08T07:46:16;7.25;;;3.83;;
48014;SDS011;33780;51.034;7.120;2023-05-08T07:48:42;7.90;;;4.00;;
48014;SDS011;33780;51.034;7.120;2023-05-08T07:51:07;6.20;;;3.90;;
48014;SDS011;33780;51.034;7.120;2023-05-08T07:53:35;6.55;;;3.90;;
48014;SDS011;33780;51.034;7.120;2023-05-08T07:56:00;7.22;;;4.20;;
48014;SDS011;33780;51.034;7.120;2023-05-08T07:58:25;7.15;;;4.10;;
48014;SDS011;33780;51.034;7.120;2023-05-08T08:00:51;6.22;;;3.90;;
48014;SDS011;33780;51.034;7.120;2023-05-08T08:03:16;6.63;;;3.97;;
48014;SDS011;33780;51.034;7.120;2023-05-08T08:05:41;6.53;;;3.75;;
48014;SDS011;33780;51.034;7.120;2023-05-08T08:08:07;7.30;;;4.10;;
48014;SDS011;33780;51.034;7.120;2023-05-08T08:10:32;6.80;;;4.18;;
48014;SDS011;33780;51.034;7.120;2023-05-08T08:12:58;7.32;;;4.00;;
48014;SDS011;33780;51.034;7.120;2023-05-08T08:15:25;7.20;;;3.88;;
48014;SDS011;33780;51.034;7.120;2023-05-08T08:17:52;6.30;;;4.15;;
48014;SDS011;33780;51.034;7.120;2023-05-08T08:20:17;7.90;;;4.38;;
48014;SDS011;33780;51.034;7.120;2023-05-08T08:22:43;6.18;;;4.22;;
48014;SDS011;33780;51.034;7.120;2023-05-08T08:25:08;6.85;;;4.00;;
48014;SDS011;33780;51.034;7.120;2023-05-08T08:27:34;6.25;;;3.92;;
48014;SDS011;33780;51.034;7.120;2023-05-08T08:29:59;6.15;;;3.88;;
48014;SDS011;33780;51.034;7.120;2023-05-08T08:32:25;6.13;;;4.10;;
48014;SDS011;33780;51.034;7.120;2023-05-08T08:34:50;7.15;;;4.00;;
48014;SDS011;33780;51.034;7.120;2023-05-08T08:37:15;7.00;;;3.90;;
48014;SDS011;33780;51.034;7.120;2023-05-08T08:39:41;7.60;;;3.85;;
48014;SDS011;33780;51.034;7.120;2023-05-08T08:42:06;6.38;;;3.95;;
48014;SDS011;33780;51.034;7.120;2023-05-08T08:44:31;7.90;;;4.20;;
48014;SDS011;33780;51.034;7.120;2023-05-08T08:46:57;6.45;;;3.70;;
48014;SDS011;33780;51.034;7.120;2023-05-08T08:49:27;5.70;;;3.60;;
48014;SDS011;33780;51.034;7.120;2023-05-08T08:52:01;6.15;;;3.80;;
48014;SDS011;33780;51.034;7.120;2023-05-08T08:54:32;5.78;;;3.78;;
48014;SDS011;33780;51.034;7.120;2023-05-08T08:56:59;7.20;;;4.30;;
48014;SDS011;33780;51.034;7.120;2023-05-08T08:59:28;6.75;;;4.18;;
48014;SDS011;33780;51.034;7.120;2023-05-08T09:01:59;6.47;;;4.00;;
48014;SDS011;33780;51.034;7.120;2023-05-08T09:04:29;6.60;;;4.18;;
48014;SDS011;33780;51.034;7.120;2023-05-08T09:06:55;6.18;;;4.10;;
48014;SDS011;33780;51.034;7.120;2023-05-08T09:09:22;7.50;;;4.00;;
48014;SDS011;33780;51.034;7.120;2023-05-08T09:11:47;8.15;;;4.18;;
48014;SDS011;33780;51.034;7.120;2023-05-08T09:14:12;6.88;;;4.00;;
48014;SDS011;33780;51.034;7.120;2023-05-08T09:16:38;6.65;;;4.07;;
48014;SDS011;33780;51.034;7.120;2023-05-08T09:19:04;7.43;;;3.60;;
48014;SDS011;33780;51.034;7.120;2023-05-08T09:21:29;5.57;;;3.83;;
48014;SDS011;33780;51.034;7.120;2023-05-08T09:23:59;6.50;;;4.10;;
48014;SDS011;33780;51.034;7.120;2023-05-08T09:26:29;5.30;;;3.40;;
48014;SDS011;33780;51.034;7.120;2023-05-08T09:29:10;6.40;;;3.80;;
48014;SDS011;33780;51.034;7.120;2023-05-08T09:31:41;7.47;;;4.30;;
48014;SDS011;33780;51.034;7.120;2023-05-08T09:34:09;7.03;;;4.25;;
48014;SDS011;33780;51.034;7.120;2023-05-08T09:36:54;5.90;;;3.80;;
48014;SDS011;33780;51.034;7.120;2023-05-08T09:39:52;7.45;;;4.28;;
48014;SDS011;33780;51.034;7.120;2023-05-08T09:42:21;6.85;;;4.25;;
48014;SDS011;33780;51.034;7.120;2023-05-08T09:44:50;6.40;;;3.65;;
48014;SDS011;33780;51.034;7.120;2023-05-08T09:47:17;6.22;;;3.58;;
48014;SDS011;33780;51.034;7.120;2023-05-08T09:50:00;6.07;;;3.95;;
48014;SDS011;33780;51.034;7.120;2023-05-08T09:52:33;7.35;;;4.30;;
48014;SDS011;33780;51.034;7.120;2023-05-08T09:55:09;6.93;;;3.75;;
48014;SDS011;33780;51.034;7.120;2023-05-08T09:57:39;6.18;;;3.60;;
48014;SDS011;33780;51.034;7.120;2023-05-08T10:00:23;6.57;;;3.92;;
48014;SDS011;33780;51.034;7.120;2023-05-08T10:03:15;6.18;;;3.95;;
48014;SDS011;33780;51.034;7.120;2023-05-08T10:06:11;6.97;;;3.70;;
48014;SDS011;33780;51.034;7.120;2023-05-08T10:09:09;6.10;;;3.83;;
48014;SDS011;33780;51.034;7.120;2023-05-08T10:12:25;6.53;;;3.90;;
48014;SDS011;33780;51.034;7.120;2023-05-08T10:14:52;5.60;;;3.58;;
48014;SDS011;33780;51.034;7.120;2023-05-08T10:20:18;5.85;;;3.83;;
48014;SDS011;33780;51.034;7.120;2023-05-08T10:22:53;5.45;;;3.28;;
48014;SDS011;33780;51.034;7.120;2023-05-08T10:25:21;7.25;;;3.95;;
48014;SDS011;33780;51.034;7.120;2023-05-08T10:27:55;8.02;;;3.90;;
48014;SDS011;33780;51.034;7.120;2023-05-08T10:30:44;5.05;;;3.50;;
48014;SDS011;33780;51.034;7.120;2023-05-08T10:33:24;6.25;;;3.78;;
48014;SDS011;33780;51.034;7.120;2023-05-08T10:36:09;8.73;;;3.95;;
48014;SDS011;33780;51.034;7.120;2023-05-08T10:38:53;7.72;;;4.00;;
48014;SDS011;33780;51.034;7.120;2023-05-08T10:41:21;5.90;;;3.70;;
48014;SDS011;33780;51.034;7.120;2023-05-08T10:43:57;5.03;;;3.23;;
48014;SDS011;33780;51.034;7.120;2023-05-08T10:46:54;5.50;;;3.60;;
48014;SDS011;33780;51.034;7.120;2023-05-08T10:49:39;6.15;;;3.53;;
48014;SDS011;33780;51.034;7.120;2023-05-08T10:55:30;6.80;;;3.65;;
48014;SDS011;33780;51.034;7.120;2023-05-08T10:58:15;5.35;;;3.50;;
48014;SDS011;33780;51.034;7.120;2023-05-08T11:03:30;6.85;;;3.83;;
48014;SDS011;33780;51.034;7.120;2023-05-08T11:06:05;6.22;;;3.65;;
48014;SDS011;33780;51.034;7.120;2023-05-08T11:08:49;5.47;;;3.65;;
48014;SDS011;33780;51.034;7.120;2023-05-08T11:11:30;5.13;;;3.40;;
48014;SDS011;33780;51.034;7.120;2023-05-08T11:14:11;5.13;;;3.45;;
48014;SDS011;33780;51.034;7.120;2023-05-08T11:22:34;6.95;;;3.72;;
48014;SDS011;33780;51.034;7.120;2023-05-08T11:25:14;6.70;;;3.45;;
48014;SDS011;33780;51.034;7.120;2023-05-08T11:36:12;6.05;;;3.63;;
48014;SDS011;33780;51.034;7.120;2023-05-08T11:41:36;6.55;;;3.67;;
48014;SDS011;33780;51.034;7.120;2023-05-08T11:46:59;5.53;;;3.50;;
48014;SDS011;33780;51.034;7.120;2023-05-08T11:49:46;7.30;;;4.00;;
48014;SDS011;33780;51.034;7.120;2023-05-08T11:52:11;6.05;;;3.33;;
48014;SDS011;33780;51.034;7.120;2023-05-08T11:54:51;7.30;;;3.75;;
48014;SDS011;33780;51.034;7.120;2023-05-08T11:57:20;6.05;;;3.67;;
48014;SDS011;33780;51.034;7.120;2023-05-08T11:59:50;5.60;;;3.70;;
48014;SDS011;33780;51.034;7.120;2023-05-08T12:02:15;5.53;;;3.83;;
48014;SDS011;33780;51.034;7.120;2023-05-08T12:04:41;4.85;;;3.03;;
48014;SDS011;33780;51.034;7.120;2023-05-08T12:07:11;5.75;;;3.45;;
48014;SDS011;33780;51.034;7.120;2023-05-08T12:09:36;5.07;;;2.83;;
48014;SDS011;33780;51.034;7.120;2023-05-08T12:12:02;4.68;;;2.90;;
48014;SDS011;33780;51.034;7.120;2023-05-08T12:14:27;4.30;;;2.60;;
48014;SDS011;33780;51.034;7.120;2023-05-08T12:16:53;4.32;;;2.47;;
48014;SDS011;33780;51.034;7.120;2023-05-08T12:19:18;4.13;;;2.55;;
48014;SDS011;33780;51.034;7.120;2023-05-08T12:21:47;4.65;;;2.35;;
48014;SDS011;33780;51.034;7.120;2023-05-08T12:24:12;4.45;;;2.80;;
48014;SDS011;33780;51.034;7.120;2023-05-08T12:26:40;4.80;;;2.55;;
48014;SDS011;33780;51.034;7.120;2023-05-08T12:29:06;5.03;;;2.72;;
48014;SDS011;33780;51.034;7.120;2023-05-08T12:31:33;4.28;;;2.38;;
48014;SDS011;33780;51.034;7.120;2023-05-08T12:34:02;3.80;;;2.40;;
48014;SDS011;33780;51.034;7.120;2023-05-08T12:36:32;4.05;;;2.33;;
48014;SDS011;33780;51.034;7.120;2023-05-08T12:39:11;3.97;;;2.30;;
48014;SDS011;33780;51.034;7.120;2023-05-08T12:41:45;3.75;;;2.40;;
48014;SDS011;33780;51.034;7.120;2023-05-08T12:44:21;4.15;;;2.50;;
48014;SDS011;33780;51.034;7.120;2023-05-08T12:46:49;4.32;;;2.38;;
48014;SDS011;33780;51.034;7.120;2023-05-08T12:49:30;6.38;;;2.92;;
48014;SDS011;33780;51.034;7.120;2023-05-08T12:51:59;4.10;;;2.30;;
48014;SDS011;33780;51.034;7.120;2023-05-08T12:54:34;4.03;;;2.60;;
48014;SDS011;33780;51.034;7.120;2023-05-08T12:57:05;5.75;;;2.90;;
48014;SDS011;33780;51.034;7.120;2023-05-08T12:59:37;4.88;;;2.80;;
48014;SDS011;33780;51.034;7.120;2023-05-08T13:02:10;4.47;;;2.67;;
48014;SDS011;33780;51.034;7.120;2023-05-08T13:04:40;4.60;;;2.90;;
48014;SDS011;33780;51.034;7.120;2023-05-08T13:07:05;4.97;;;3.08;;
48014;SDS011;33780;51.034;7.120;2023-05-08T13:09:30;4.70;;;2.88;;
48014;SDS011;33780;51.034;7.120;2023-05-08T13:11:56;5.30;;;3.20;;
48014;SDS011;33780;51.034;7.120;2023-05-08T13:14:21;5.50;;;3.10;;
48014;SDS011;33780;51.034;7.120;2023-05-08T13:16:46;4.53;;;3.13;;
48014;SDS011;33780;51.034;7.120;2023-05-08T13:19:12;5.03;;;3.00;;
48014;SDS011;33780;51.034;7.120;2023-05-08T13:21:39;5.85;;;3.28;;
48014;SDS011;33780;51.034;7.120;2023-05-08T13:24:05;6.05;;;3.40;;
48014;SDS011;33780;51.034;7.120;2023-05-08T13:26:31;5.25;;;3.13;;
48014;SDS011;33780;51.034;7.120;2023-05-08T13:28:56;6.10;;;3.55;;
48014;SDS011;33780;51.034;7.120;2023-05-08T13:31:21;5.65;;;3.65;;
48014;SDS011;33780;51.034;7.120;2023-05-08T13:33:47;5.30;;;3.20;;
48014;SDS011;33780;51.034;7.120;2023-05-08T13:36:12;6.50;;;3.40;;
48014;SDS011;33780;51.034;7.120;2023-05-08T13:38:37;6.50;;;3.63;;
48014;SDS011;33780;51.034;7.120;2023-05-08T13:41:03;5.75;;;3.63;;
48014;SDS011;33780;51.034;7.120;2023-05-08T13:43:28;5.25;;;3.40;;
48014;SDS011;33780;51.034;7.120;2023-05-08T13:45:53;6.22;;;3.42;;
48014;SDS011;33780;51.034;7.120;2023-05-08T13:48:19;7.32;;;3.88;;
48014;SDS011;33780;51.034;7.120;2023-05-08T13:50:44;6.18;;;3.45;;
48014;SDS011;33780;51.034;7.120;2023-05-08T13:53:09;4.82;;;3.00;;
48014;SDS011;33780;51.034;7.120;2023-05-08T13:55:35;4.75;;;3.22;;
48014;SDS011;33780;51.034;7.120;2023-05-08T13:58:00;6.20;;;3.60;;
48014;SDS011;33780;51.034;7.120;2023-05-08T14:00:26;4.78;;;3.05;;
48014;SDS011;33780;51.034;7.120;2023-05-08T14:02:51;5.80;;;3.38;;
48014;SDS011;33780;51.034;7.120;2023-05-08T14:05:16;5.40;;;3.45;;
48014;SDS011;33780;51.034;7.120;2023-05-08T14:07:42;6.22;;;3.90;;
48014;SDS011;33780;51.034;7.120;2023-05-08T14:10:07;6.07;;;3.55;;
48014;SDS011;33780;51.034;7.120;2023-05-08T14:12:33;6.25;;;4.10;;
48014;SDS011;33780;51.034;7.120;2023-05-08T14:15:04;6.35;;;3.58;;
48014;SDS011;33780;51.034;7.120;2023-05-08T14:17:30;9.48;;;3.65;;
48014;SDS011;33780;51.034;7.120;2023-05-08T14:19:56;7.57;;;4.15;;
48014;SDS011;33780;51.034;7.120;2023-05-08T14:22:21;6.88;;;4.15;;
48014;SDS011;33780;51.034;7.120;2023-05-08T14:24:46;7.07;;;3.70;;
48014;SDS011;33780;51.034;7.120;2023-05-08T14:27:12;6.50;;;3.60;;
48014;SDS011;33780;51.034;7.120;2023-05-08T14:29:38;5.75;;;3.63;;
48014;SDS011;33780;51.034;7.120;2023-05-08T14:32:03;7.63;;;3.78;;
48014;SDS011;33780;51.034;7.120;2023-05-08T14:34:29;6.35;;;3.72;;
48014;SDS011;33780;51.034;7.120;2023-05-08T14:36:54;7.10;;;3.80;;
48014;SDS011;33780;51.034;7.120;2023-05-08T14:39:20;6.75;;;3.88;;
48014;SDS011;33780;51.034;7.120;2023-05-08T14:41:45;7.82;;;4.50;;
48014;SDS011;33780;51.034;7.120;2023-05-08T14:44:10;7.95;;;4.53;;
48014;SDS011;33780;51.034;7.120;2023-05-08T14:46:35;8.40;;;4.30;;
48014;SDS011;33780;51.034;7.120;2023-05-08T14:49:01;11.35;;;4.88;;
48014;SDS011;33780;51.034;7.120;2023-05-08T14:51:26;7.95;;;4.25;;
48014;SDS011;33780;51.034;7.120;2023-05-08T14:53:52;9.23;;;5.30;;
48014;SDS011;33780;51.034;7.120;2023-05-08T14:56:17;9.50;;;4.70;;
48014;SDS011;33780;51.034;7.120;2023-05-08T14:58:43;8.75;;;4.32;;
48014;SDS011;33780;51.034;7.120;2023-05-08T15:01:08;6.53;;;3.78;;
48014;SDS011;33780;51.034;7.120;2023-05-08T15:03:33;6.65;;;3.92;;
48014;SDS011;33780;51.034;7.120;2023-05-08T15:05:59;6.60;;;4.03;;
48014;SDS011;33780;51.034;7.120;2023-05-08T15:08:24;7.72;;;3.92;;
48014;SDS011;33780;51.034;7.120;2023-05-08T15:10:49;7.82;;;4.20;;
48014;SDS011;33780;51.034;7.120;2023-05-08T15:13:16;8.60;;;4.45;;
48014;SDS011;33780;51.034;7.120;2023-05-08T15:15:41;6.43;;;3.90;;
48014;SDS011;33780;51.034;7.120;2023-05-08T15:18:06;5.80;;;3.63;;
48014;SDS011;33780;51.034;7.120;2023-05-08T15:20:31;6.53;;;3.53;;
48014;SDS011;33780;51.034;7.120;2023-05-08T15:22:57;5.25;;;3.05;;
48014;SDS011;33780;51.034;7.120;2023-05-08T15:25:22;5.45;;;3.47;;
48014;SDS011;33780;51.034;7.120;2023-05-08T15:27:49;5.30;;;3.40;;
48014;SDS011;33780;51.034;7.120;2023-05-08T15:30:16;5.28;;;3.35;;
48014;SDS011;33780;51.034;7.120;2023-05-08T15:32:45;5.03;;;3.20;;
48014;SDS011;33780;51.034;7.120;2023-05-08T15:35:10;6.07;;;3.25;;
48014;SDS011;33780;51.034;7.120;2023-05-08T15:37:36;4.10;;;2.70;;
48014;SDS011;33780;51.034;7.120;2023-05-08T15:40:07;5.60;;;2.92;;
48014;SDS011;33780;51.034;7.120;2023-05-08T15:42:44;3.75;;;2.40;;
48014;SDS011;33780;51.034;7.120;2023-05-08T15:45:19;5.63;;;3.05;;
48014;SDS011;33780;51.034;7.120;2023-05-08T15:47:47;4.15;;;2.53;;
48014;SDS011;33780;51.034;7.120;2023-05-08T15:53:22;4.32;;;2.58;;
48014;SDS011;33780;51.034;7.120;2023-05-08T15:55:48;4.30;;;2.70;;
48014;SDS011;33780;51.034;7.120;2023-05-08T15:58:19;4.45;;;2.33;;
48014;SDS011;33780;51.034;7.120;2023-05-08T16:07:24;4.05;;;2.47;;